Time;durP1;ratioP1;P1;durP2;ratioP2;P2;SDS_P1;SDS_P2;PMS_P1;PMS_P2;Temp;Humidity;BMP_temperature;BMP_pressure;BME280_temperature;BME280_humidity;BME280_pressure;Samples;Min_cycle;Max_cycle;Signal;HPM_P1;HPM_P2
2023/09/15 00:01:46;;;;;;;3.30;1.42;;;;;;;;;;5036136;28;20047;-18
2023/09/15 00:04:13;;;;;;;3.53;1.23;;;;;;;;;;5036054;28;20041;-22
2023/09/15 00:06:39;;;;;;;1.92;1.58;;;;;;;;;;5035696;28;20026;-21
2023/09/15 00:09:06;;;;;;;2.30;1.80;;;;;;;;;;5035951;28;20025;-20
2023/09/15 00:11:40;;;;;;;1.48;1.08;;;;;;;;;;5035953;28;20052;-23
2023/09/15 00:14:13;;;;;;;1.55;1.17;;;;;;;;;;5018643;28;20352;-20
2023/09/15 00:16:40;;;;;;;2.70;1.70;;;;;;;;;;5035906;28;20326;-27
2023/09/15 00:19:07;;;;;;;1.55;1.45;;;;;;;;;;5035780;28;20034;-19
2023/09/15 00:21:34;;;;;;;2.30;1.50;;;;;;;;;;5035245;28;20053;-20
2023/09/15 00:24:05;;;;;;;1.52;1.42;;;;;;;;;;5035217;28;20413;-22
2023/09/15 00:26:32;;;;;;;1.60;1.50;;;;;;;;;;5035409;28;20098;-24
2023/09/15 00:28:59;;;;;;;1.42;1.33;;;;;;;;;;5035244;28;20025;-22
2023/09/15 00:31:26;;;;;;;4.40;1.60;;;;;;;;;;5035562;28;20040;-21
2023/09/15 00:33:52;;;;;;;1.73;1.55;;;;;;;;;;5035132;28;20112;-22
2023/09/15 00:36:18;;;;;;;1.70;1.13;;;;;;;;;;5035467;28;20044;-22
2023/09/15 00:38:45;;;;;;;2.05;1.40;;;;;;;;;;5035158;28;20452;-22
2023/09/15 00:41:11;;;;;;;1.20;1.10;;;;;;;;;;5035047;28;20032;-25
2023/09/15 00:43:38;;;;;;;2.10;1.60;;;;;;;;;;5017674;28;20136;-22
2023/09/15 00:46:04;;;;;;;1.73;1.35;;;;;;;;;;5035272;28;20033;-19
2023/09/15 00:48:32;;;;;;;3.58;1.70;;;;;;;;;;5035556;28;20045;-23
2023/09/15 00:50:59;;;;;;;3.13;1.83;;;;;;;;;;5034957;28;20022;-20
2023/09/15 00:53:25;;;;;;;1.08;1.02;;;;;;;;;;5035065;28;20365;-21
2023/09/15 00:55:52;;;;;;;2.50;1.55;;;;;;;;;;5035404;28;20452;-22
2023/09/15 00:58:21;;;;;;;2.15;1.40;;;;;;;;;;5035390;28;20018;-19
2023/09/15 01:00:48;;;;;;;3.33;1.67;;;;;;;;;;5034786;28;20030;-22
2023/09/15 01:03:19;;;;;;;1.30;1.20;;;;;;;;;;5034715;28;20364;-21
2023/09/15 01:05:45;;;;;;;2.00;1.55;;;;;;;;;;5035342;28;20057;-21
2023/09/15 01:08:12;;;;;;;2.90;1.30;;;;;;;;;;5034707;28;20112;-20
2023/09/15 01:10:39;;;;;;;2.63;1.70;;;;;;;;;;5034971;28;20037;-19
2023/09/15 01:13:05;;;;;;;2.40;1.90;;;;;;;;;;5034450;28;20424;-20
2023/09/15 01:15:37;;;;;;;2.65;2.05;;;;;;;;;;5034677;28;20381;-18
2023/09/15 01:18:16;;;;;;;1.17;1.05;;;;;;;;;;5017192;28;20444;-22
2023/09/15 01:21:01;;;;;;;1.58;1.23;;;;;;;;;;5034649;28;20033;-20
2023/09/15 01:23:46;;;;;;;2.47;2.13;;;;;;;;;;5034515;28;20068;-19
2023/09/15 01:26:24;;;;;;;1.08;0.98;;;;;;;;;;5034464;28;20029;-23
2023/09/15 01:29:09;;;;;;;2.17;1.40;;;;;;;;;;5034780;28;20037;-24
2023/09/15 01:31:37;;;;;;;2.13;1.50;;;;;;;;;;5034777;28;20356;-20
2023/09/15 01:34:05;;;;;;;2.20;1.50;;;;;;;;;;5034301;28;20026;-18
2023/09/15 01:36:31;;;;;;;1.55;1.30;;;;;;;;;;5036928;28;20095;-20
2023/09/15 01:38:57;;;;;;;1.75;1.50;;;;;;;;;;5038568;28;20020;-23
2023/09/15 01:41:23;;;;;;;1.27;1.17;;;;;;;;;;5038561;28;20030;-23
2023/09/15 01:43:51;;;;;;;1.85;1.33;;;;;;;;;;5038665;28;20117;-21
2023/09/15 01:46:17;;;;;;;1.48;1.35;;;;;;;;;;5038684;28;20074;-21
2023/09/15 01:48:44;;;;;;;4.60;1.40;;;;;;;;;;5038377;28;20476;-21
2023/09/15 01:51:10;;;;;;;0.85;0.85;;;;;;;;;;5038343;28;20029;-19
2023/09/15 01:53:37;;;;;;;3.13;1.30;;;;;;;;;;5038127;28;20037;-20
2023/09/15 01:56:03;;;;;;;1.45;1.35;;;;;;;;;;5038240;28;20391;-19
2023/09/15 01:58:29;;;;;;;2.08;1.50;;;;;;;;;;5038479;28;20028;-19
2023/09/15 02:00:56;;;;;;;1.17;1.15;;;;;;;;;;5038372;28;20348;-21
2023/09/15 02:03:22;;;;;;;1.40;1.30;;;;;;;;;;5038655;28;20033;-24
2023/09/15 02:05:48;;;;;;;1.50;1.40;;;;;;;;;;5037993;28;20516;-21
2023/09/15 02:08:14;;;;;;;2.35;1.20;;;;;;;;;;5038249;28;20360;-23
2023/09/15 02:10:40;;;;;;;1.60;1.27;;;;;;;;;;5038001;28;20360;-20
2023/09/15 02:13:07;;;;;;;1.38;1.00;;;;;;;;;;5037759;28;20112;-21
2023/09/15 02:15:33;;;;;;;1.48;1.35;;;;;;;;;;5037829;28;20033;-20
2023/09/15 02:17:59;;;;;;;5.35;1.40;;;;;;;;;;5020403;28;20025;-21
2023/09/15 02:20:25;;;;;;;1.63;1.33;;;;;;;;;;5038046;28;20026;-23
2023/09/15 02:22:51;;;;;;;1.52;1.42;;;;;;;;;;5037589;28;20053;-19
2023/09/15 02:25:17;;;;;;;1.58;1.48;;;;;;;;;;5037571;28;20431;-20
2023/09/15 02:27:44;;;;;;;1.50;1.15;;;;;;;;;;5037652;28;20034;-20
2023/09/15 02:30:10;;;;;;;1.40;1.13;;;;;;;;;;5038133;28;20033;-20
2023/09/15 02:32:36;;;;;;;1.83;1.30;;;;;;;;;;5037776;28;20032;-21
2023/09/15 02:35:02;;;;;;;2.30;1.10;;;;;;;;;;5037432;28;20017;-20
2023/09/15 02:37:29;;;;;;;1.30;1.20;;;;;;;;;;5037747;28;20025;-22
2023/09/15 02:39:55;;;;;;;1.30;1.20;;;;;;;;;;5037398;28;20070;-21
2023/09/15 02:42:21;;;;;;;3.33;1.38;;;;;;;;;;5037672;28;20536;-23
2023/09/15 02:44:47;;;;;;;1.70;1.42;;;;;;;;;;5037296;28;20460;-20
2023/09/15 02:47:13;;;;;;;1.38;1.13;;;;;;;;;;5036165;28;20036;-20
2023/09/15 02:49:40;;;;;;;1.50;1.20;;;;;;;;;;5019852;28;20045;-22
2023/09/15 02:52:06;;;;;;;1.30;1.20;;;;;;;;;;5037156;28;20022;-20
2023/09/15 02:54:32;;;;;;;1.65;1.33;;;;;;;;;;5037003;28;20036;-20
2023/09/15 02:56:58;;;;;;;2.78;1.77;;;;;;;;;;5037099;28;20021;-21
2023/09/15 02:59:24;;;;;;;1.48;1.30;;;;;;;;;;5037330;28;20453;-21
2023/09/15 03:01:51;;;;;;;2.40;1.30;;;;;;;;;;5037011;28;20116;-19
2023/09/15 03:04:19;;;;;;;1.70;1.20;;;;;;;;;;5036981;28;20025;-20
2023/09/15 03:06:45;;;;;;;1.48;1.38;;;;;;;;;;5036954;28;20029;-19
2023/09/15 03:09:12;;;;;;;1.98;1.00;;;;;;;;;;5036897;28;20033;-19
2023/09/15 03:11:38;;;;;;;2.88;1.90;;;;;;;;;;5037066;28;20084;-18
2023/09/15 03:14:04;;;;;;;2.65;1.15;;;;;;;;;;5036567;28;20041;-28
2023/09/15 03:16:30;;;;;;;1.48;1.38;;;;;;;;;;5036760;28;20025;-20
2023/09/15 03:18:56;;;;;;;3.22;0.98;;;;;;;;;;5037210;28;20045;-21
2023/09/15 03:21:22;;;;;;;3.60;1.35;;;;;;;;;;5036660;28;20431;-21
2023/09/15 03:23:49;;;;;;;2.92;1.15;;;;;;;;;;5019299;28;20030;-24
2023/09/15 03:26:15;;;;;;;1.55;1.13;;;;;;;;;;5037426;28;20343;-25
2023/09/15 03:28:41;;;;;;;2.40;1.33;;;;;;;;;;5036816;28;20100;-25
2023/09/15 03:31:08;;;;;;;1.40;1.30;;;;;;;;;;5036619;28;20033;-28
2023/09/15 03:33:35;;;;;;;2.90;1.05;;;;;;;;;;5036303;28;20093;-18
2023/09/15 03:36:02;;;;;;;1.20;1.10;;;;;;;;;;5036308;28;20056;-23
2023/09/15 03:38:28;;;;;;;1.00;1.00;;;;;;;;;;5036283;28;20033;-20
2023/09/15 03:40:54;;;;;;;1.30;1.20;;;;;;;;;;5036232;28;20028;-19
2023/09/15 03:43:20;;;;;;;1.08;1.00;;;;;;;;;;5036647;28;20025;-23
2023/09/15 03:45:47;;;;;;;1.73;0.93;;;;;;;;;;5036366;28;20075;-23
2023/09/15 03:48:14;;;;;;;1.17;1.00;;;;;;;;;;5036093;28;20029;-20
2023/09/15 03:50:40;;;;;;;3.55;1.20;;;;;;;;;;5036356;28;20030;-23
2023/09/15 03:53:06;;;;;;;1.08;1.00;;;;;;;;;;5035875;28;20032;-23
2023/09/15 03:55:32;;;;;;;1.20;0.95;;;;;;;;;;5035919;28;20033;-20
2023/09/15 03:57:58;;;;;;;1.05;0.88;;;;;;;;;;5035848;28;20021;-18
2023/09/15 04:00:24;;;;;;;2.03;1.88;;;;;;;;;;5036085;28;20025;-21
2023/09/15 04:02:51;;;;;;;1.30;1.20;;;;;;;;;;5036327;28;20098;-20
2023/09/15 04:05:17;;;;;;;1.63;1.17;;;;;;;;;;5035667;28;20033;-23
2023/09/15 04:07:43;;;;;;;1.70;0.95;;;;;;;;;;5035625;28;20555;-22
2023/09/15 04:10:09;;;;;;;1.30;1.17;;;;;;;;;;5018215;28;20036;-21
2023/09/15 04:12:36;;;;;;;3.58;1.17;;;;;;;;;;5036025;28;20171;-22
2023/09/15 04:15:04;;;;;;;1.40;1.30;;;;;;;;;;5035665;28;20037;-21
2023/09/15 04:17:32;;;;;;;1.38;1.27;;;;;;;;;;5035430;28;20083;-21
2023/09/15 04:19:59;;;;;;;1.67;1.27;;;;;;;;;;5035392;28;20025;-21
2023/09/15 04:22:26;;;;;;;4.38;1.33;;;;;;;;;;5035358;28;20444;-20
2023/09/15 04:24:52;;;;;;;2.08;1.10;;;;;;;;;;5035197;28;20099;-26
2023/09/15 04:27:19;;;;;;;2.55;1.42;;;;;;;;;;5035484;28;20022;-21
2023/09/15 04:29:57;;;;;;;1.20;1.10;;;;;;;;;;5035457;28;20025;-21
2023/09/15 04:32:23;;;;;;;2.40;1.10;;;;;;;;;;5035103;28;20343;-20
2023/09/15 04:34:50;;;;;;;2.88;1.30;;;;;;;;;;5035069;28;20032;-22
2023/09/15 04:37:17;;;;;;;1.95;1.35;;;;;;;;;;5035326;28;20052;-24
2023/09/15 04:39:43;;;;;;;1.35;1.25;;;;;;;;;;5035213;28;20057;-27
2023/09/15 04:42:12;;;;;;;3.67;1.17;;;;;;;;;;5034984;28;20056;-19
2023/09/15 04:44:39;;;;;;;1.02;0.93;;;;;;;;;;5035094;28;20033;-21
2023/09/15 04:47:05;;;;;;;3.00;1.33;;;;;;;;;;5034897;28;20026;-21
2023/09/15 04:49:32;;;;;;;1.67;1.42;;;;;;;;;;5017449;28;20025;-24
2023/09/15 04:51:58;;;;;;;4.65;1.23;;;;;;;;;;5034871;28;20040;-20
2023/09/15 04:54:24;;;;;;;2.65;1.05;;;;;;;;;;5034571;28;20025;-21
2023/09/15 04:56:50;;;;;;;2.75;1.15;;;;;;;;;;5017355;28;20032;-18
2023/09/15 04:59:16;;;;;;;4.25;1.25;;;;;;;;;;5034889;28;20048;-20
2023/09/15 05:01:46;;;;;;;5.95;1.52;;;;;;;;;;5034693;28;20080;-21
2023/09/15 05:04:14;;;;;;;2.05;1.23;;;;;;;;;;5034538;28;20022;-21
2023/09/15 05:06:40;;;;;;;3.13;1.20;;;;;;;;;;5034520;28;20029;-21
2023/09/15 05:09:10;;;;;;;2.17;1.35;;;;;;;;;;5034440;28;20513;-27
2023/09/15 05:11:39;;;;;;;2.95;1.67;;;;;;;;;;5033678;28;20029;-21
2023/09/15 05:14:06;;;;;;;4.28;1.35;;;;;;;;;;5034566;28;20029;-21
2023/09/15 05:16:32;;;;;;;2.10;1.08;;;;;;;;;;5034999;28;20049;-23
2023/09/15 05:18:58;;;;;;;1.67;0.98;;;;;;;;;;5034329;28;20104;-18
2023/09/15 05:21:24;;;;;;;3.83;0.88;;;;;;;;;;5034314;28;20053;-20
2023/09/15 05:23:50;;;;;;;1.98;1.00;;;;;;;;;;5034268;28;20375;-19
2023/09/15 05:26:16;;;;;;;1.95;1.25;;;;;;;;;;5034656;28;20108;-20
2023/09/15 05:28:42;;;;;;;2.65;1.00;;;;;;;;;;5034330;28;20037;-24
2023/09/15 05:31:08;;;;;;;2.85;0.90;;;;;;;;;;5034591;28;20025;-24
2023/09/15 05:33:35;;;;;;;5.70;1.15;;;;;;;;;;5034252;28;20104;-21
2023/09/15 05:36:01;;;;;;;2.65;1.48;;;;;;;;;;5034133;28;20021;-21
2023/09/15 05:38:27;;;;;;;3.80;1.10;;;;;;;;;;5034548;28;20100;-19
2023/09/15 05:40:53;;;;;;;2.25;1.02;;;;;;;;;;5034156;28;20083;-22
2023/09/15 05:43:20;;;;;;;1.40;1.20;;;;;;;;;;5016774;28;20029;-21
2023/09/15 05:45:47;;;;;;;2.70;1.15;;;;;;;;;;5034229;28;20036;-24
2023/09/15 05:48:22;;;;;;;1.55;1.35;;;;;;;;;;5034029;28;20109;-21
2023/09/15 05:50:49;;;;;;;3.60;1.10;;;;;;;;;;5034420;28;20368;-23
2023/09/15 05:53:15;;;;;;;4.47;1.33;;;;;;;;;;5033854;28;20029;-22
2023/09/15 05:55:41;;;;;;;2.05;1.33;;;;;;;;;;5034274;28;20022;-23
2023/09/15 05:58:07;;;;;;;6.35;1.10;;;;;;;;;;5033830;28;20028;-20
2023/09/15 06:00:34;;;;;;;3.63;1.23;;;;;;;;;;5033881;28;20021;-25
2023/09/15 06:03:00;;;;;;;11.63;1.63;;;;;;;;;;5034154;28;20088;-20
2023/09/15 06:05:26;;;;;;;2.95;1.50;;;;;;;;;;5033921;28;20086;-18
2023/09/15 06:07:53;;;;;;;6.70;1.20;;;;;;;;;;5033871;28;20506;-26
2023/09/15 06:10:19;;;;;;;4.18;1.35;;;;;;;;;;5033749;28;20464;-24
2023/09/15 06:12:48;;;;;;;3.17;1.33;;;;;;;;;;5034007;28;20026;-25
2023/09/15 06:15:14;;;;;;;3.17;1.95;;;;;;;;;;5016296;28;20025;-24
2023/09/15 06:17:40;;;;;;;2.63;1.20;;;;;;;;;;5016438;28;20032;-19
2023/09/15 06:20:07;;;;;;;3.80;1.30;;;;;;;;;;5033991;28;20333;-26
2023/09/15 06:22:34;;;;;;;1.75;1.27;;;;;;;;;;5036053;28;20049;-26
2023/09/15 06:25:01;;;;;;;3.13;1.00;;;;;;;;;;5037728;28;20029;-21
2023/09/15 06:27:27;;;;;;;1.83;1.08;;;;;;;;;;5037476;28;20022;-24
2023/09/15 06:29:53;;;;;;;2.15;1.58;;;;;;;;;;5037907;28;20040;-22
2023/09/15 06:32:20;;;;;;;1.88;1.27;;;;;;;;;;5037394;28;20025;-21
2023/09/15 06:34:46;;;;;;;3.47;1.17;;;;;;;;;;5037146;28;20025;-24
2023/09/15 06:37:12;;;;;;;2.50;1.20;;;;;;;;;;5037761;28;20030;-19
2023/09/15 06:39:38;;;;;;;3.58;1.52;;;;;;;;;;5037365;28;20422;-27
2023/09/15 06:42:04;;;;;;;1.20;0.93;;;;;;;;;;5037713;28;20091;-21
2023/09/15 06:44:31;;;;;;;1.90;1.40;;;;;;;;;;5037309;28;20045;-27
2023/09/15 06:46:57;;;;;;;2.03;0.98;;;;;;;;;;5036877;28;20087;-21
2023/09/15 06:49:24;;;;;;;2.00;1.15;;;;;;;;;;5036901;28;20112;-21
2023/09/15 06:51:50;;;;;;;3.15;1.05;;;;;;;;;;5036809;28;20031;-24
2023/09/15 06:54:16;;;;;;;12.27;2.00;;;;;;;;;;5036682;28;20030;-23
2023/09/15 06:56:42;;;;;;;4.70;1.45;;;;;;;;;;5036802;28;20398;-21
2023/09/15 06:59:08;;;;;;;11.20;1.60;;;;;;;;;;5036708;28;20025;-20
2023/09/15 07:01:34;;;;;;;8.30;1.60;;;;;;;;;;5036767;28;20052;-19
2023/09/15 07:04:00;;;;;;;10.10;1.75;;;;;;;;;;5036569;28;20096;-20
2023/09/15 07:06:27;;;;;;;7.32;1.92;;;;;;;;;;5036878;28;20369;-20
2023/09/15 07:08:53;;;;;;;2.05;1.20;;;;;;;;;;5036525;28;20038;-22
2023/09/15 07:11:19;;;;;;;11.05;1.90;;;;;;;;;;5036839;28;20040;-22
2023/09/15 07:13:45;;;;;;;10.60;1.50;;;;;;;;;;5036362;28;20036;-21
2023/09/15 07:16:12;;;;;;;4.80;1.65;;;;;;;;;;5036578;28;20018;-22
2023/09/15 07:18:38;;;;;;;5.53;1.27;;;;;;;;;;5036585;28;20028;-18
2023/09/15 07:21:04;;;;;;;4.95;1.20;;;;;;;;;;5036250;28;20091;-20
2023/09/15 07:23:30;;;;;;;3.67;1.58;;;;;;;;;;5036367;28;20463;-25
2023/09/15 07:25:56;;;;;;;3.70;0.95;;;;;;;;;;5036509;28;20044;-23
2023/09/15 07:28:22;;;;;;;11.73;2.25;;;;;;;;;;5036447;28;20026;-21
2023/09/15 07:30:48;;;;;;;8.05;3.05;;;;;;;;;;5036621;28;20083;-20
2023/09/15 07:33:15;;;;;;;6.80;1.60;;;;;;;;;;5035586;28;20033;-20
2023/09/15 07:35:41;;;;;;;7.85;1.75;;;;;;;;;;5036294;28;20025;-20
2023/09/15 07:38:08;;;;;;;4.60;1.30;;;;;;;;;;5036203;28;20032;-19
2023/09/15 07:40:34;;;;;;;6.47;1.48;;;;;;;;;;5036191;28;20025;-22
2023/09/15 07:43:00;;;;;;;3.50;1.45;;;;;;;;;;5036309;28;20345;-21
2023/09/15 07:45:27;;;;;;;7.00;2.00;;;;;;;;;;5036553;28;20029;-21
2023/09/15 07:47:53;;;;;;;16.67;1.73;;;;;;;;;;5035798;28;20088;-22
2023/09/15 07:50:20;;;;;;;3.13;1.13;;;;;;;;;;5035841;28;20029;-22
2023/09/15 07:52:46;;;;;;;14.73;2.63;;;;;;;;;;5018239;28;20464;-23
2023/09/15 07:55:13;;;;;;;17.88;3.28;;;;;;;;;;5018504;28;20029;-21
2023/09/15 07:57:40;;;;;;;10.98;2.60;;;;;;;;;;5035806;28;20026;-17
2023/09/15 08:00:07;;;;;;;16.77;2.78;;;;;;;;;;5018294;28;20033;-22
2023/09/15 08:02:36;;;;;;;14.25;2.45;;;;;;;;;;5035782;28;20037;-18
2023/09/15 08:05:02;;;;;;;4.50;1.20;;;;;;;;;;5035521;28;20022;-18
2023/09/15 08:07:28;;;;;;;11.05;3.50;;;;;;;;;;5035749;28;20045;-24
2023/09/15 08:09:56;;;;;;;12.20;1.67;;;;;;;;;;5035598;28;20100;-21
2023/09/15 08:12:23;;;;;;;19.50;2.25;;;;;;;;;;5035605;28;20474;-26
2023/09/15 08:14:49;;;;;;;7.43;1.73;;;;;;;;;;5018790;28;20376;-19
2023/09/15 08:17:16;;;;;;;7.28;1.67;;;;;;;;;;5035996;28;20029;-24
2023/09/15 08:19:43;;;;;;;10.30;1.63;;;;;;;;;;5036414;28;20341;-20
2023/09/15 08:22:09;;;;;;;11.25;1.38;;;;;;;;;;5034988;28;20108;-20
2023/09/15 08:24:37;;;;;;;5.13;1.80;;;;;;;;;;5035090;28;20087;-20
2023/09/15 08:27:03;;;;;;;6.65;2.95;;;;;;;;;;5035075;28;20435;-23
2023/09/15 08:29:30;;;;;;;3.72;1.45;;;;;;;;;;5035852;28;20057;-23
2023/09/15 08:31:56;;;;;;;3.28;1.58;;;;;;;;;;5017624;28;20029;-24
2023/09/15 08:34:22;;;;;;;8.40;3.20;;;;;;;;;;5034897;28;20049;-19
2023/09/15 08:36:48;;;;;;;3.67;1.48;;;;;;;;;;5035048;28;20076;-21
2023/09/15 08:39:14;;;;;;;5.07;1.52;;;;;;;;;;5034969;28;20079;-24
2023/09/15 08:41:43;;;;;;;6.97;1.67;;;;;;;;;;5034997;28;20325;-28
2023/09/15 08:44:10;;;;;;;5.07;1.20;;;;;;;;;;5034658;28;20053;-19
2023/09/15 08:46:39;;;;;;;5.00;1.50;;;;;;;;;;5034793;28;20029;-24
2023/09/15 08:49:07;;;;;;;3.35;0.90;;;;;;;;;;5035246;28;20100;-20
2023/09/15 08:51:33;;;;;;;6.32;1.83;;;;;;;;;;5034970;28;20033;-25
2023/09/15 08:53:59;;;;;;;2.10;1.40;;;;;;;;;;5034725;28;20029;-22
2023/09/15 08:56:26;;;;;;;10.27;2.00;;;;;;;;;;5034586;28;20025;-19
2023/09/15 08:58:52;;;;;;;4.78;1.35;;;;;;;;;;5035065;28;20045;-20
2023/09/15 09:01:19;;;;;;;9.10;1.45;;;;;;;;;;5034773;28;20081;-21
2023/09/15 09:03:45;;;;;;;8.20;1.52;;;;;;;;;;5034630;28;20456;-21
2023/09/15 09:06:15;;;;;;;5.13;1.30;;;;;;;;;;5034558;28;20293;-24
2023/09/15 09:08:42;;;;;;;3.67;1.55;;;;;;;;;;5035484;28;20479;-21
2023/09/15 09:11:09;;;;;;;2.60;1.60;;;;;;;;;;5034436;28;20033;-21
2023/09/15 09:13:35;;;;;;;10.85;2.00;;;;;;;;;;5016895;28;20029;-22
2023/09/15 09:16:05;;;;;;;7.57;1.73;;;;;;;;;;5034351;28;20049;-20
2023/09/15 09:18:33;;;;;;;2.47;1.02;;;;;;;;;;5034883;28;20071;-23
2023/09/15 09:20:59;;;;;;;5.85;1.25;;;;;;;;;;5034239;28;20045;-24
2023/09/15 09:23:25;;;;;;;2.75;1.45;;;;;;;;;;5034509;28;20143;-21
2023/09/15 09:25:51;;;;;;;4.68;1.30;;;;;;;;;;5034504;28;20033;-21
2023/09/15 09:28:17;;;;;;;3.08;1.02;;;;;;;;;;5034886;28;20029;-21
2023/09/15 09:30:43;;;;;;;1.00;0.88;;;;;;;;;;5017046;28;20040;-25
2023/09/15 09:33:11;;;;;;;2.25;1.02;;;;;;;;;;5034520;28;20035;-21
2023/09/15 09:35:38;;;;;;;4.97;1.10;;;;;;;;;;5034295;28;20087;-21
2023/09/15 09:38:04;;;;;;;6.43;1.38;;;;;;;;;;5034565;28;20014;-19
2023/09/15 09:40:32;;;;;;;2.10;1.30;;;;;;;;;;5034193;28;20021;-20
2023/09/15 09:42:58;;;;;;;2.28;1.00;;;;;;;;;;5034356;28;20411;-21
2023/09/15 09:45:26;;;;;;;8.02;1.70;;;;;;;;;;5034187;28;20110;-22
2023/09/15 09:47:53;;;;;;;10.45;2.63;;;;;;;;;;5034482;28;20378;-23
2023/09/15 09:50:20;;;;;;;9.80;1.85;;;;;;;;;;5034633;28;20384;-19
2023/09/15 09:52:47;;;;;;;10.57;2.00;;;;;;;;;;5034578;28;20034;-21
2023/09/15 09:55:14;;;;;;;15.85;2.22;;;;;;;;;;5034005;28;20029;-23
2023/09/15 09:57:41;;;;;;;7.38;1.63;;;;;;;;;;5036597;28;20100;-20
2023/09/15 10:00:09;;;;;;;5.65;1.50;;;;;;;;;;5038437;28;20037;-21
2023/09/15 10:02:42;;;;;;;5.72;2.28;;;;;;;;;;5038290;28;20021;-21
2023/09/15 10:05:09;;;;;;;14.70;1.73;;;;;;;;;;5038126;28;20040;-21
2023/09/15 10:07:35;;;;;;;5.82;1.38;;;;;;;;;;5037821;28;20018;-23
2023/09/15 10:10:03;;;;;;;2.45;1.77;;;;;;;;;;5037853;28;20113;-22
2023/09/15 10:12:30;;;;;;;6.93;1.92;;;;;;;;;;5038037;28;20357;-21
2023/09/15 10:14:56;;;;;;;10.35;1.88;;;;;;;;;;5037541;28;20025;-22
2023/09/15 10:17:24;;;;;;;6.45;1.33;;;;;;;;;;5037667;28;20349;-20
2023/09/15 10:19:51;;;;;;;10.13;1.88;;;;;;;;;;5020428;28;20033;-26
2023/09/15 10:22:17;;;;;;;15.32;2.70;;;;;;;;;;5037343;28;20049;-22
2023/09/15 10:24:44;;;;;;;23.85;4.97;;;;;;;;;;5037392;28;20029;-21
2023/09/15 10:27:11;;;;;;;9.15;2.30;;;;;;;;;;5038079;28;20109;-21
2023/09/15 10:29:38;;;;;;;7.78;1.70;;;;;;;;;;5037298;28;20037;-20
2023/09/15 10:32:04;;;;;;;6.85;1.52;;;;;;;;;;5037527;28;20045;-23
2023/09/15 10:34:32;;;;;;;6.38;2.00;;;;;;;;;;5037321;28;20041;-21
2023/09/15 10:37:02;;;;;;;3.95;1.60;;;;;;;;;;5037421;28;20026;-20
2023/09/15 10:39:38;;;;;;;8.95;2.17;;;;;;;;;;5019597;28;20036;-25
2023/09/15 10:42:08;;;;;;;8.88;1.90;;;;;;;;;;5036983;28;20029;-19
2023/09/15 10:44:34;;;;;;;14.10;1.67;;;;;;;;;;5036932;28;20021;-25
2023/09/15 10:47:01;;;;;;;5.10;1.55;;;;;;;;;;5037077;28;20142;-25
2023/09/15 10:49:27;;;;;;;11.85;1.90;;;;;;;;;;5019557;28;20053;-24
2023/09/15 10:51:54;;;;;;;4.32;1.50;;;;;;;;;;5037114;28;20033;-22
2023/09/15 10:54:21;;;;;;;7.47;1.20;;;;;;;;;;5036886;28;20033;-24
2023/09/15 10:56:48;;;;;;;8.13;1.88;;;;;;;;;;5036952;28;20095;-24
2023/09/15 10:59:17;;;;;;;9.60;1.75;;;;;;;;;;5037177;28;20076;-20
2023/09/15 11:01:44;;;;;;;7.18;1.40;;;;;;;;;;5037169;28;20022;-20
2023/09/15 11:04:17;;;;;;;6.80;1.40;;;;;;;;;;5036981;28;20479;-21
2023/09/15 11:06:48;;;;;;;5.65;1.83;;;;;;;;;;5036826;28;20041;-21
2023/09/15 11:09:15;;;;;;;9.73;1.60;;;;;;;;;;5035858;28;20022;-23
2023/09/15 11:11:46;;;;;;;5.55;1.42;;;;;;;;;;5036725;28;20030;-21
2023/09/15 11:14:16;;;;;;;8.02;2.03;;;;;;;;;;5019618;28;20481;-21
2023/09/15 11:16:44;;;;;;;2.27;1.53;;;;;;;;;;5036657;28;20060;-23
2023/09/15 11:19:11;;;;;;;3.50;1.08;;;;;;;;;;5036847;28;20040;-23
2023/09/15 11:21:39;;;;;;;10.90;1.63;;;;;;;;;;5036248;28;20045;-22
2023/09/15 11:24:05;;;;;;;3.72;1.35;;;;;;;;;;5036386;28;20456;-21
2023/09/15 11:26:31;;;;;;;6.10;1.42;;;;;;;;;;5036554;28;20076;-19
2023/09/15 11:28:59;;;;;;;2.50;1.40;;;;;;;;;;5036662;28;20059;-24
2023/09/15 11:31:26;;;;;;;3.83;1.60;;;;;;;;;;5036627;28;20407;-19
2023/09/15 11:33:54;;;;;;;2.95;1.17;;;;;;;;;;5036486;28;20097;-21
2023/09/15 11:36:23;;;;;;;4.78;1.55;;;;;;;;;;5036003;28;20026;-22
2023/09/15 11:38:49;;;;;;;4.32;1.30;;;;;;;;;;5036022;28;20330;-24
2023/09/15 11:41:16;;;;;;;6.63;1.65;;;;;;;;;;5036062;28;20401;-21
2023/09/15 11:43:43;;;;;;;4.93;1.73;;;;;;;;;;5035957;28;20057;-20
2023/09/15 11:46:10;;;;;;;9.68;2.17;;;;;;;;;;5035974;28;20033;-21
2023/09/15 11:48:38;;;;;;;9.90;3.00;;;;;;;;;;5036154;28;20026;-22
2023/09/15 11:51:09;;;;;;;8.15;1.58;;;;;;;;;;5035777;28;20456;-25
2023/09/15 11:53:39;;;;;;;5.35;1.38;;;;;;;;;;5036112;28;20345;-25
2023/09/15 11:56:05;;;;;;;5.40;1.80;;;;;;;;;;5035826;28;20091;-19
2023/09/15 11:58:32;;;;;;;7.45;1.45;;;;;;;;;;5036090;28;20428;-21
2023/09/15 12:00:59;;;;;;;10.70;1.85;;;;;;;;;;5036066;28;20029;-27
2023/09/15 12:03:26;;;;;;;8.90;2.40;;;;;;;;;;5035921;28;20160;-22
2023/09/15 12:05:54;;;;;;;3.15;1.40;;;;;;;;;;5035717;28;20030;-22
2023/09/15 12:08:21;;;;;;;9.57;2.35;;;;;;;;;;5035786;28;20075;-19
2023/09/15 12:10:49;;;;;;;15.95;2.50;;;;;;;;;;5035751;28;20101;-20
2023/09/15 12:13:15;;;;;;;7.38;1.70;;;;;;;;;;5035061;28;20475;-22
2023/09/15 12:15:41;;;;;;;10.02;1.95;;;;;;;;;;5035889;28;20026;-24
2023/09/15 12:18:08;;;;;;;4.75;1.90;;;;;;;;;;5035650;28;20021;-21
2023/09/15 12:20:38;;;;;;;1.85;1.00;;;;;;;;;;5035432;28;20033;-21
2023/09/15 12:23:11;;;;;;;1.65;1.52;;;;;;;;;;5035037;28;20369;-21
2023/09/15 12:25:38;;;;;;;4.80;1.63;;;;;;;;;;5035141;28;20461;-21
2023/09/15 12:28:04;;;;;;;4.22;1.70;;;;;;;;;;5035141;28;20029;-22
2023/09/15 12:30:30;;;;;;;7.30;2.03;;;;;;;;;;5035459;28;20475;-22
2023/09/15 12:32:56;;;;;;;5.35;1.83;;;;;;;;;;5035289;28;20088;-21
2023/09/15 12:35:22;;;;;;;8.93;2.08;;;;;;;;;;5035257;28;20025;-21
2023/09/15 12:37:48;;;;;;;3.05;1.95;;;;;;;;;;5017554;28;20053;-21
2023/09/15 12:40:16;;;;;;;5.60;1.67;;;;;;;;;;5034954;28;20441;-20
2023/09/15 12:42:45;;;;;;;4.82;2.15;;;;;;;;;;5035404;28;20318;-20
2023/09/15 12:45:14;;;;;;;5.03;1.40;;;;;;;;;;5034808;28;20033;-23
2023/09/15 12:47:40;;;;;;;5.72;1.90;;;;;;;;;;5034772;28;20017;-19
2023/09/15 12:50:06;;;;;;;4.22;1.50;;;;;;;;;;5034908;28;20448;-22
2023/09/15 12:52:33;;;;;;;4.32;2.00;;;;;;;;;;5017784;28;20025;-20
2023/09/15 12:54:59;;;;;;;11.45;1.60;;;;;;;;;;5034652;28;20032;-22
2023/09/15 12:57:25;;;;;;;7.63;1.90;;;;;;;;;;5034857;28;20100;-22
2023/09/15 12:59:52;;;;;;;4.55;1.58;;;;;;;;;;5034814;28;20371;-23
2023/09/15 13:02:18;;;;;;;3.13;1.55;;;;;;;;;;5034712;28;20083;-21
2023/09/15 13:04:45;;;;;;;3.00;1.40;;;;;;;;;;5034735;28;20453;-21
2023/09/15 13:07:11;;;;;;;2.17;1.17;;;;;;;;;;5034719;28;20030;-20
2023/09/15 13:09:37;;;;;;;7.20;1.48;;;;;;;;;;5034527;28;20022;-23
2023/09/15 13:12:04;;;;;;;4.50;1.23;;;;;;;;;;5034885;28;20033;-24
2023/09/15 13:14:30;;;;;;;4.80;1.75;;;;;;;;;;5017104;28;20026;-24
2023/09/15 13:16:57;;;;;;;3.25;1.45;;;;;;;;;;5017444;28;20022;-19
2023/09/15 13:19:24;;;;;;;7.95;1.65;;;;;;;;;;5034534;28;20059;-25
2023/09/15 13:21:50;;;;;;;5.40;1.70;;;;;;;;;;5028136;28;20194;-21
2023/09/15 13:24:16;;;;;;;4.60;2.03;;;;;;;;;;5015359;28;20029;-25
2023/09/15 13:26:42;;;;;;;7.63;2.22;;;;;;;;;;5014801;28;20025;-22
2023/09/15 13:29:10;;;;;;;4.65;1.52;;;;;;;;;;5014736;28;20025;-21
2023/09/15 13:31:36;;;;;;;7.20;1.80;;;;;;;;;;5014277;28;20125;-21
2023/09/15 13:34:03;;;;;;;5.55;1.90;;;;;;;;;;5014866;28;20365;-21
2023/09/15 13:36:29;;;;;;;2.70;2.30;;;;;;;;;;5014971;28;20026;-22
2023/09/15 13:38:55;;;;;;;6.30;1.88;;;;;;;;;;5015106;28;20022;-20
2023/09/15 13:41:21;;;;;;;6.35;1.52;;;;;;;;;;5014770;28;20021;-22
2023/09/15 13:43:47;;;;;;;7.68;1.88;;;;;;;;;;5014860;28;20101;-20
2023/09/15 13:46:13;;;;;;;7.68;1.27;;;;;;;;;;4998078;28;20045;-21
2023/09/15 13:48:39;;;;;;;4.65;1.85;;;;;;;;;;5014538;28;20057;-24
2023/09/15 13:51:05;;;;;;;3.15;1.58;;;;;;;;;;5015004;28;20429;-22
2023/09/15 13:53:35;;;;;;;5.85;2.03;;;;;;;;;;5014358;28;20037;-21
2023/09/15 13:56:02;;;;;;;9.27;2.10;;;;;;;;;;5014291;28;20025;-21
2023/09/15 13:58:29;;;;;;;4.82;1.77;;;;;;;;;;5014917;28;20014;-21
2023/09/15 14:00:56;;;;;;;7.15;1.65;;;;;;;;;;5014690;28;20369;-20
2023/09/15 14:03:23;;;;;;;5.07;1.80;;;;;;;;;;5014342;28;20137;-19
2023/09/15 14:05:49;;;;;;;5.47;1.50;;;;;;;;;;4996803;28;20054;-23
2023/09/15 14:08:15;;;;;;;5.90;2.17;;;;;;;;;;5014392;28;20037;-24
2023/09/15 14:10:41;;;;;;;2.22;1.42;;;;;;;;;;5014614;28;20101;-22
2023/09/15 14:13:08;;;;;;;3.10;1.48;;;;;;;;;;5014400;28;20022;-20
2023/09/15 14:15:34;;;;;;;1.30;1.20;;;;;;;;;;5014222;28;20032;-21
2023/09/15 14:18:01;;;;;;;4.72;2.25;;;;;;;;;;5014290;28;20045;-23
2023/09/15 14:20:27;;;;;;;8.82;1.80;;;;;;;;;;5014253;28;20377;-24
2023/09/15 14:22:54;;;;;;;7.82;1.88;;;;;;;;;;5014028;28;20046;-21
2023/09/15 14:25:20;;;;;;;8.40;2.50;;;;;;;;;;4996849;28;20026;-19
2023/09/15 14:27:46;;;;;;;4.13;1.63;;;;;;;;;;5014751;28;20112;-22
2023/09/15 14:30:13;;;;;;;6.50;1.80;;;;;;;;;;5014565;28;20022;-20
2023/09/15 14:32:39;;;;;;;3.80;1.60;;;;;;;;;;5014496;28;20105;-20
2023/09/15 14:35:05;;;;;;;4.13;1.65;;;;;;;;;;5013952;28;20030;-24
2023/09/15 14:37:33;;;;;;;2.67;1.60;;;;;;;;;;4996691;28;20018;-20
2023/09/15 14:39:59;;;;;;;2.83;1.42;;;;;;;;;;5014431;28;20022;-20